createdAt,value
2019-03-22T00:03:04.577Z,51.40
2019-03-22T00:05:33.272Z,51.70
2019-03-22T00:08:01.863Z,51.50
2019-03-22T00:10:30.508Z,51.40
2019-03-22T00:12:59.164Z,52.40
2019-03-22T00:15:27.806Z,52.40
2019-03-22T00:17:56.405Z,52.20
2019-03-22T00:20:25.036Z,52.20
2019-03-22T00:22:53.716Z,51.90
2019-03-22T00:25:22.367Z,52.10
2019-03-22T00:27:51.006Z,52.10
2019-03-22T00:30:19.590Z,52.10
2019-03-22T00:32:48.153Z,51.90
2019-03-22T00:35:16.843Z,52.10
2019-03-22T00:37:45.495Z,52.40
2019-03-22T00:40:15.730Z,53.40
2019-03-22T00:42:44.293Z,52.80
2019-03-22T00:45:12.995Z,52.40
2019-03-22T00:47:41.661Z,52.80
2019-03-22T00:50:12.103Z,53.60
2019-03-22T00:52:40.775Z,53.50
2019-03-22T00:55:09.502Z,52.20
2019-03-22T00:57:38.160Z,51.70
2019-03-22T01:00:14.132Z,51.70
2019-03-22T01:02:42.802Z,51.50
2019-03-22T01:05:11.446Z,52.40
2019-03-22T01:07:40.038Z,53.10
2019-03-22T01:10:10.788Z,53.00
2019-03-22T01:12:39.271Z,52.90
2019-03-22T01:15:10.025Z,52.70
2019-03-22T01:17:38.679Z,52.20
2019-03-22T01:20:08.949Z,51.90
2019-03-22T01:22:37.517Z,51.70
2019-03-22T01:25:09.917Z,52.10
2019-03-22T01:27:40.637Z,52.90
2019-03-22T01:30:14.646Z,53.20
2019-03-22T01:32:43.213Z,53.20
2019-03-22T01:35:11.919Z,53.20
2019-03-22T01:37:40.630Z,53.40
2019-03-22T01:40:12.764Z,53.60
2019-03-22T01:42:40.668Z,54.40
2019-03-22T01:45:12.088Z,53.50
2019-03-22T01:47:40.643Z,53.40
2019-03-22T01:50:17.106Z,53.20
2019-03-22T01:52:45.764Z,53.00
2019-03-22T01:55:14.323Z,52.60
2019-03-22T01:57:52.395Z,53.10
2019-03-22T02:00:15.223Z,53.00
2019-03-22T02:02:43.776Z,52.90
2019-03-22T02:05:12.398Z,53.00
2019-03-22T02:07:40.951Z,52.60
2019-03-22T02:10:11.225Z,53.00
2019-03-22T02:12:39.811Z,53.90
2019-03-22T02:15:13.218Z,54.30
2019-03-22T02:17:42.172Z,54.70
2019-03-22T02:20:13.058Z,54.80
2019-03-22T02:22:41.616Z,54.50
2019-03-22T02:25:10.189Z,54.30
2019-03-22T02:27:38.888Z,54.40
2019-03-22T02:30:13.295Z,54.70
2019-03-22T02:32:41.982Z,54.80
2019-03-22T02:35:21.419Z,54.70
2019-03-22T02:37:40.956Z,54.70
2019-03-22T02:40:11.091Z,54.70
2019-03-22T02:42:39.623Z,54.30
2019-03-22T02:45:10.619Z,54.00
2019-03-22T02:47:39.227Z,54.10
2019-03-22T02:50:17.742Z,54.70
2019-03-22T02:52:40.360Z,54.70
2019-03-22T02:55:09.944Z,55.20
2019-03-22T02:57:38.502Z,55.50
2019-03-22T03:00:10.477Z,55.20
2019-03-22T03:02:39.108Z,55.10
2019-03-22T03:05:09.254Z,55.20
2019-03-22T03:07:37.870Z,55.70
2019-03-22T03:10:16.928Z,55.60
2019-03-22T03:12:45.595Z,55.60
2019-03-22T03:15:18.258Z,55.90
2019-03-22T03:17:46.936Z,56.20
2019-03-22T03:20:16.785Z,56.30
2019-03-22T03:22:45.465Z,57.00
2019-03-22T03:25:14.210Z,57.90
2019-03-22T03:27:42.884Z,58.10
2019-03-22T03:30:16.690Z,57.90
2019-03-22T03:32:45.344Z,58.30
2019-03-22T03:35:14.006Z,59.20
2019-03-22T03:37:42.568Z,59.20
2019-03-22T03:40:13.044Z,58.90
2019-03-22T03:42:41.626Z,59.00
2019-03-22T03:45:19.160Z,58.90
2019-03-22T03:47:47.774Z,58.80
2019-03-22T03:50:16.421Z,58.70
2019-03-22T03:52:45.091Z,58.60
2019-03-22T03:55:13.592Z,58.60
2019-03-22T03:57:43.060Z,58.70
2019-03-22T04:00:11.700Z,58.30
2019-03-22T04:02:40.234Z,58.00
2019-03-22T04:05:08.857Z,57.80
2019-03-22T04:07:37.475Z,57.50
2019-03-22T04:10:07.690Z,57.40
2019-03-22T04:12:36.255Z,57.60
2019-03-22T04:15:06.489Z,57.60
2019-03-22T04:17:35.134Z,58.30
2019-03-22T04:20:05.215Z,58.60
2019-03-22T04:22:36.350Z,59.50
2019-03-22T04:25:05.920Z,59.20
2019-03-22T04:27:34.460Z,59.50
2019-03-22T04:30:03.083Z,59.00
2019-03-22T04:32:31.684Z,58.40
2019-03-22T04:35:00.414Z,58.10
2019-03-22T04:37:29.431Z,58.70
2019-03-22T04:39:58.094Z,57.90
2019-03-22T04:42:26.707Z,59.10
2019-03-22T04:44:55.347Z,58.80
2019-03-22T04:47:24.031Z,58.80
2019-03-22T04:49:52.513Z,58.60
2019-03-22T04:52:21.211Z,58.40
2019-03-22T04:54:49.882Z,58.80
2019-03-22T04:57:18.448Z,59.10
2019-03-22T04:59:47.107Z,59.00
2019-03-22T05:02:15.797Z,58.90
2019-03-22T05:04:44.360Z,58.50
2019-03-22T05:07:12.921Z,59.30
2019-03-22T05:09:41.584Z,59.20
2019-03-22T05:12:10.640Z,58.70
2019-03-22T05:14:39.237Z,58.60
2019-03-22T05:17:07.828Z,59.50
2019-03-22T05:19:37.289Z,59.60
2019-03-22T05:22:06.071Z,60.20
2019-03-22T05:24:34.566Z,61.00
2019-03-22T05:27:03.244Z,60.50
2019-03-22T05:29:31.950Z,59.40
2019-03-22T05:32:08.168Z,59.40
2019-03-22T05:34:36.782Z,58.80
2019-03-22T05:37:05.410Z,58.20
2019-03-22T05:39:33.974Z,58.40
2019-03-22T05:42:02.676Z,57.80
2019-03-22T05:44:31.303Z,55.20
2019-03-22T05:46:59.951Z,53.20
2019-03-22T05:49:28.630Z,51.30
2019-03-22T05:51:57.205Z,49.10
2019-03-22T05:54:25.899Z,47.20
2019-03-22T05:56:54.469Z,45.30
2019-03-22T05:59:23.152Z,43.30
2019-03-22T06:01:51.802Z,41.60
2019-03-22T06:04:20.475Z,41.20
2019-03-22T06:06:49.045Z,41.60
2019-03-22T06:09:17.721Z,40.00
2019-03-22T06:11:46.397Z,42.00
2019-03-22T06:14:14.967Z,43.70
2019-03-22T06:16:43.660Z,44.40
2019-03-22T06:19:12.316Z,46.20
2019-03-22T06:21:41.005Z,44.00
2019-03-22T06:24:09.629Z,41.00
2019-03-22T06:26:38.307Z,38.60
2019-03-22T06:29:06.866Z,36.00
2019-03-22T06:31:35.478Z,35.70
2019-03-22T06:34:04.131Z,35.40
2019-03-22T06:36:32.818Z,34.20
2019-03-22T06:39:01.555Z,31.80
2019-03-22T06:41:30.140Z,30.80
2019-03-22T06:43:58.807Z,30.90
2019-03-22T06:46:27.371Z,30.60
2019-03-22T06:48:56.035Z,27.60
2019-03-22T06:51:24.610Z,25.80
2019-03-22T06:53:53.286Z,23.60
2019-03-22T06:56:21.947Z,22.70
2019-03-22T06:58:50.609Z,22.90
2019-03-22T07:01:19.267Z,23.50
2019-03-22T07:03:47.953Z,22.20
2019-03-22T07:06:16.522Z,20.90
2019-03-22T07:08:45.210Z,22.00
2019-03-22T07:11:13.897Z,23.10
2019-03-22T07:13:42.462Z,22.60
2019-03-22T07:16:11.134Z,22.50
2019-03-22T07:18:39.776Z,22.10
2019-03-22T07:21:08.371Z,22.70
2019-03-22T07:23:37.014Z,22.00
2019-03-22T07:26:06.094Z,20.80
2019-03-22T07:28:34.600Z,21.10
2019-03-22T07:31:03.278Z,21.80
2019-03-22T07:33:31.838Z,20.60
2019-03-22T07:36:00.394Z,20.40
2019-03-22T07:38:28.890Z,20.10
2019-03-22T07:40:57.582Z,19.50
2019-03-22T07:43:26.067Z,19.00
2019-03-22T07:45:54.718Z,19.00
2019-03-22T07:48:23.263Z,17.80
2019-03-22T07:50:51.909Z,18.50
2019-03-22T07:53:20.533Z,17.60
2019-03-22T07:55:49.188Z,17.90
2019-03-22T07:58:17.739Z,18.60
2019-03-22T08:00:46.373Z,19.40
2019-03-22T08:03:14.972Z,19.60
2019-03-22T08:05:51.051Z,18.90
2019-03-22T08:08:13.830Z,19.70
2019-03-22T08:10:42.497Z,19.40
2019-03-22T08:13:11.136Z,19.30
2019-03-22T08:15:39.819Z,19.40
2019-03-22T08:18:08.467Z,18.30
2019-03-22T08:20:38.756Z,18.60
2019-03-22T08:23:10.423Z,17.70
2019-03-22T08:25:38.294Z,17.10
2019-03-22T08:28:06.869Z,17.30
2019-03-22T08:30:42.899Z,16.50
2019-03-22T08:33:05.814Z,17.00
2019-03-22T08:35:34.493Z,16.50
2019-03-22T08:38:03.040Z,16.70
2019-03-22T08:40:31.674Z,16.00
2019-03-22T08:43:00.273Z,14.60
2019-03-22T08:45:28.863Z,14.80
2019-03-22T08:47:57.485Z,15.10
2019-03-22T08:50:26.033Z,14.80
2019-03-22T08:52:54.591Z,14.50
2019-03-22T08:55:23.188Z,14.70
2019-03-22T08:57:51.816Z,14.20
2019-03-22T09:00:20.395Z,14.80
2019-03-22T09:02:49.837Z,14.30
2019-03-22T09:05:18.743Z,14.40
2019-03-22T09:07:47.427Z,14.20
2019-03-22T09:10:16.094Z,14.50
2019-03-22T09:12:44.778Z,13.40
2019-03-22T09:15:13.437Z,12.90
2019-03-22T09:17:42.207Z,12.70
2019-03-22T09:20:11.221Z,13.60
2019-03-22T09:22:39.879Z,14.00
2019-03-22T09:25:08.510Z,14.50
2019-03-22T09:27:37.195Z,14.20
2019-03-22T09:30:08.655Z,13.30
2019-03-22T09:32:37.217Z,13.10
2019-03-22T09:35:06.618Z,13.60
2019-03-22T09:37:35.245Z,13.00
2019-03-22T09:40:08.312Z,12.90
2019-03-22T09:42:36.396Z,13.00
2019-03-22T09:45:06.774Z,12.70
2019-03-22T09:47:35.620Z,12.70
2019-03-22T09:50:07.131Z,12.60
2019-03-22T09:52:35.709Z,13.30
2019-03-22T09:55:13.311Z,13.30
2019-03-22T09:57:35.181Z,13.00
2019-03-22T10:00:04.854Z,12.50
2019-03-22T10:02:33.512Z,12.80
2019-03-22T10:05:02.161Z,12.70
2019-03-22T10:07:30.908Z,12.70
2019-03-22T10:09:59.493Z,12.40
2019-03-22T10:12:28.166Z,12.00
2019-03-22T10:14:56.813Z,12.00
2019-03-22T10:17:25.500Z,12.20
2019-03-22T10:19:54.045Z,12.20
2019-03-22T10:22:22.730Z,12.20
2019-03-22T10:24:51.378Z,11.20
2019-03-22T10:27:19.992Z,11.90
2019-03-22T10:29:48.655Z,12.30
2019-03-22T10:32:17.315Z,11.30
2019-03-22T10:34:45.990Z,12.00
2019-03-22T10:37:14.619Z,12.10
2019-03-22T10:39:43.307Z,12.10
2019-03-22T10:42:11.978Z,12.00
2019-03-22T10:44:40.644Z,11.90
2019-03-22T10:47:09.293Z,11.60
2019-03-22T10:49:37.912Z,12.20
2019-03-22T10:52:06.557Z,12.10
2019-03-22T10:54:35.238Z,11.70
2019-03-22T10:57:03.919Z,11.50
2019-03-22T10:59:32.503Z,11.50
2019-03-22T11:02:03.601Z,11.10
2019-03-22T11:04:31.388Z,10.70
2019-03-22T11:07:00.094Z,11.00
2019-03-22T11:09:28.755Z,11.30
2019-03-22T11:11:57.443Z,10.70
2019-03-22T11:14:26.079Z,11.30
2019-03-22T11:16:54.694Z,11.50
2019-03-22T11:19:23.266Z,11.70
2019-03-22T11:21:51.775Z,11.30
2019-03-22T11:24:20.436Z,11.60
2019-03-22T11:26:49.098Z,11.70
2019-03-22T11:29:17.764Z,11.20
2019-03-22T11:31:46.417Z,11.70
2019-03-22T11:34:15.097Z,10.90
2019-03-22T11:36:43.734Z,11.20
2019-03-22T11:39:15.813Z,11.90
2019-03-22T11:41:42.734Z,12.30
2019-03-22T11:44:11.316Z,11.90
2019-03-22T11:46:39.998Z,11.90
2019-03-22T11:49:08.645Z,11.70
2019-03-22T11:51:37.325Z,12.10
2019-03-22T11:54:05.889Z,13.20
2019-03-22T11:56:34.509Z,12.80
2019-03-22T11:59:03.091Z,13.30
2019-03-22T12:01:31.767Z,13.10
2019-03-22T12:04:00.360Z,13.90
2019-03-22T12:06:29.021Z,14.60
2019-03-22T12:08:57.615Z,14.90
2019-03-22T12:11:26.248Z,15.20
2019-03-22T12:13:54.937Z,15.80
2019-03-22T12:16:23.494Z,15.90
2019-03-22T12:18:52.179Z,16.30
2019-03-22T12:21:20.756Z,16.40
2019-03-22T12:23:49.354Z,16.30
2019-03-22T12:26:18.002Z,16.80
2019-03-22T12:28:46.606Z,17.40
2019-03-22T12:31:15.256Z,17.70
2019-03-22T12:33:43.941Z,17.80
2019-03-22T12:36:12.617Z,18.40
2019-03-22T12:38:41.198Z,19.00
2019-03-22T12:41:09.824Z,19.30
2019-03-22T12:43:38.399Z,19.60
2019-03-22T12:46:07.082Z,19.60
2019-03-22T12:48:35.664Z,19.20
2019-03-22T12:51:04.337Z,18.50
2019-03-22T12:53:32.976Z,17.90
2019-03-22T12:56:01.593Z,17.60
2019-03-22T12:58:30.233Z,18.30
2019-03-22T13:00:58.904Z,18.20
2019-03-22T13:03:27.594Z,18.50
2019-03-22T13:05:56.190Z,18.70
2019-03-22T13:08:24.841Z,17.20
2019-03-22T13:10:53.407Z,18.20
2019-03-22T13:13:22.099Z,17.40
2019-03-22T13:15:50.680Z,17.70
2019-03-22T13:18:19.276Z,17.50
2019-03-22T13:20:47.935Z,18.50
2019-03-22T13:23:16.619Z,17.90
2019-03-22T13:25:45.177Z,17.50
2019-03-22T13:28:13.868Z,18.00
2019-03-22T13:30:42.535Z,17.80
2019-03-22T13:33:11.184Z,18.90
2019-03-22T13:35:39.791Z,18.30
2019-03-22T13:38:08.307Z,17.10
2019-03-22T13:40:37.259Z,17.50
2019-03-22T13:43:05.909Z,17.90
2019-03-22T13:45:34.582Z,17.00
2019-03-22T13:48:03.221Z,16.50
2019-03-22T13:50:31.901Z,16.70
2019-03-22T13:53:00.535Z,17.00
2019-03-22T13:55:29.227Z,16.90
2019-03-22T13:57:57.861Z,17.30
2019-03-22T14:00:26.537Z,18.20
2019-03-22T14:03:03.106Z,19.00
2019-03-22T14:05:25.502Z,19.00
2019-03-22T14:07:53.933Z,19.00
2019-03-22T14:10:31.030Z,18.30
2019-03-22T14:13:01.199Z,18.00
2019-03-22T14:15:29.859Z,17.90
2019-03-22T14:17:58.939Z,18.30
2019-03-22T14:20:27.571Z,17.80
2019-03-22T14:22:56.260Z,17.60
2019-03-22T14:25:24.895Z,17.40
2019-03-22T14:27:53.988Z,18.00
2019-03-22T14:30:22.569Z,17.30
2019-03-22T14:32:51.190Z,18.70
2019-03-22T14:35:19.819Z,18.00
2019-03-22T14:37:48.497Z,18.10
2019-03-22T14:40:17.103Z,18.70
2019-03-22T14:42:45.735Z,17.30
2019-03-22T14:45:14.364Z,17.90
2019-03-22T14:47:42.997Z,18.30
2019-03-22T14:50:12.180Z,18.30
2019-03-22T14:52:40.763Z,18.50
2019-03-22T14:55:09.430Z,18.00
2019-03-22T14:57:48.390Z,17.40
2019-03-22T15:00:10.828Z,18.10
2019-03-22T15:02:39.508Z,17.00
2019-03-22T15:05:08.143Z,17.80
2019-03-22T15:07:36.795Z,17.50
2019-03-22T15:10:07.876Z,18.40
2019-03-22T15:12:36.542Z,18.20
2019-03-22T15:15:11.541Z,17.30
2019-03-22T15:17:44.618Z,16.90
2019-03-22T15:20:30.057Z,17.40
2019-03-22T15:23:16.408Z,18.80
2019-03-22T15:26:02.752Z,17.70
2019-03-22T15:28:32.970Z,17.50
2019-03-22T15:31:19.355Z,17.00
2019-03-22T15:36:26.501Z,18.70
2019-03-22T15:38:56.824Z,18.90
2019-03-22T15:41:25.612Z,17.80
2019-03-22T15:43:54.313Z,17.40
2019-03-22T15:46:22.958Z,17.30
2019-03-22T15:48:51.515Z,17.10
2019-03-22T15:51:20.096Z,17.80
2019-03-22T15:53:48.705Z,18.40
2019-03-22T15:56:17.345Z,18.20
2019-03-22T15:58:46.018Z,18.00
2019-03-22T16:01:14.672Z,18.30
2019-03-22T16:03:44.475Z,19.00
2019-03-22T16:06:13.324Z,18.50
2019-03-22T16:08:41.864Z,18.50
2019-03-22T16:11:10.460Z,19.30
2019-03-22T16:13:39.164Z,19.10
2019-03-22T16:16:07.821Z,20.10
2019-03-22T16:18:36.428Z,19.50
2019-03-22T16:21:05.030Z,19.70
2019-03-22T16:23:33.615Z,19.70
2019-03-22T16:26:02.304Z,19.30
2019-03-22T16:28:30.947Z,19.40
2019-03-22T16:30:59.578Z,19.60
2019-03-22T16:33:28.214Z,19.80
2019-03-22T16:35:56.832Z,20.10
2019-03-22T16:38:25.519Z,20.70
2019-03-22T16:40:54.163Z,21.60
2019-03-22T16:43:22.846Z,21.80
2019-03-22T16:45:51.518Z,22.90
2019-03-22T16:48:20.109Z,22.90
2019-03-22T16:50:48.766Z,23.20
2019-03-22T16:53:17.442Z,22.70
2019-03-22T16:55:46.013Z,22.30
2019-03-22T16:58:14.695Z,22.60
2019-03-22T17:00:43.262Z,22.00
2019-03-22T17:03:11.948Z,22.10
2019-03-22T17:05:40.527Z,22.40
2019-03-22T17:08:09.116Z,22.80
2019-03-22T17:10:37.712Z,22.70
2019-03-22T17:13:06.398Z,23.00
2019-03-22T17:15:35.053Z,24.00
2019-03-22T17:18:04.070Z,23.90
2019-03-22T17:20:32.917Z,24.30
2019-03-22T17:23:02.774Z,24.80
2019-03-22T17:25:31.611Z,24.80
2019-03-22T17:28:00.463Z,24.70
2019-03-22T17:30:29.356Z,25.60
2019-03-22T17:32:58.184Z,25.30
2019-03-22T17:35:27.055Z,26.20
2019-03-22T17:37:55.918Z,26.70
2019-03-22T17:40:24.755Z,27.40
2019-03-22T17:42:53.583Z,28.10
2019-03-22T17:45:22.463Z,28.50
2019-03-22T17:47:51.283Z,28.60
2019-03-22T17:50:20.249Z,28.80
2019-03-22T17:52:49.031Z,29.20
2019-03-22T17:55:17.865Z,29.40
2019-03-22T17:57:46.812Z,29.80
2019-03-22T18:00:25.676Z,30.30
2019-03-22T18:02:54.641Z,30.40
2019-03-22T18:05:23.442Z,31.10
2019-03-22T18:07:52.312Z,31.40
2019-03-22T18:10:21.127Z,31.80
2019-03-22T18:12:49.925Z,32.50
2019-03-22T18:15:18.736Z,32.80
2019-03-22T18:17:47.602Z,32.80
2019-03-22T18:20:17.033Z,32.90
2019-03-22T18:22:45.897Z,33.60
2019-03-22T18:25:15.786Z,34.50
2019-03-22T18:27:45.012Z,35.10
2019-03-22T18:30:15.336Z,34.80
2019-03-22T18:32:44.244Z,34.90
2019-03-22T18:35:13.153Z,34.60
2019-03-22T18:37:42.168Z,34.60
2019-03-22T18:40:15.109Z,35.40
2019-03-22T18:42:43.645Z,35.90
2019-03-22T18:45:14.809Z,36.90
2019-03-22T18:47:43.893Z,37.00
2019-03-22T18:50:13.757Z,37.30
2019-03-22T18:52:42.560Z,36.70
2019-03-22T18:55:11.615Z,36.60
2019-03-22T18:57:40.445Z,36.30
2019-03-22T19:00:12.338Z,36.50
2019-03-22T19:02:41.092Z,36.80
2019-03-22T19:05:09.959Z,36.90
2019-03-22T19:07:38.796Z,37.70
2019-03-22T19:10:12.428Z,37.70
2019-03-22T19:12:41.263Z,37.50
2019-03-22T19:15:12.233Z,37.60
2019-03-22T19:17:41.067Z,38.00
2019-03-22T19:20:14.550Z,38.30
2019-03-22T19:22:43.406Z,38.60
2019-03-22T19:25:14.390Z,38.70
2019-03-22T19:27:43.131Z,38.40
2019-03-22T19:30:16.962Z,38.20
2019-03-22T19:32:45.832Z,38.40
2019-03-22T19:35:15.857Z,38.40
2019-03-22T19:37:44.705Z,38.90
2019-03-22T19:40:17.199Z,38.90
2019-03-22T19:42:46.078Z,39.00
2019-03-22T19:45:16.849Z,39.10
2019-03-22T19:47:45.960Z,39.10
2019-03-22T19:50:16.282Z,39.30
2019-03-22T19:52:45.155Z,39.50
2019-03-22T19:55:14.045Z,39.60
2019-03-22T19:57:42.896Z,39.60
2019-03-22T20:00:20.053Z,39.20
2019-03-22T20:02:49.349Z,39.70
2019-03-22T20:05:29.507Z,39.80
2019-03-22T20:07:58.381Z,40.10
2019-03-22T20:10:27.193Z,40.10
2019-03-22T20:12:56.167Z,40.00
2019-03-22T20:15:25.039Z,40.20
2019-03-22T20:17:53.795Z,41.20
2019-03-22T20:20:22.650Z,41.30
2019-03-22T20:22:51.471Z,40.80
2019-03-22T20:25:20.328Z,40.40
2019-03-22T20:27:49.204Z,41.40
2019-03-22T20:30:20.171Z,41.60
2019-03-22T20:32:48.987Z,41.40
2019-03-22T20:35:17.804Z,42.30
2019-03-22T20:37:46.603Z,43.00
2019-03-22T20:40:18.232Z,42.80
2019-03-22T20:42:47.177Z,42.40
2019-03-22T20:45:24.072Z,43.20
2019-03-22T20:47:46.601Z,43.30
2019-03-22T20:50:15.604Z,43.40
2019-03-22T20:52:44.466Z,42.70
2019-03-22T20:55:13.440Z,42.90
2019-03-22T20:57:42.301Z,43.70
2019-03-22T21:00:16.059Z,44.00
2019-03-22T21:02:44.894Z,44.80
2019-03-22T21:05:13.851Z,44.00
2019-03-22T21:07:42.682Z,43.90
2019-03-22T21:10:12.691Z,44.20
2019-03-22T21:12:41.521Z,44.20
2019-03-22T21:15:12.145Z,44.90
2019-03-22T21:17:40.982Z,43.60
2019-03-22T21:20:11.345Z,43.20
2019-03-22T21:22:40.169Z,43.70
2019-03-22T21:25:10.546Z,44.00
2019-03-22T21:27:40.051Z,43.90
2019-03-22T21:30:14.396Z,44.30
2019-03-22T21:32:45.479Z,44.60
2019-03-22T21:35:21.997Z,44.60
2019-03-22T21:37:44.201Z,44.90
2019-03-22T21:40:13.044Z,45.20
2019-03-22T21:42:41.861Z,45.30
2019-03-22T21:45:11.488Z,44.90
2019-03-22T21:47:40.303Z,44.50
2019-03-22T21:50:10.414Z,44.60
2019-03-22T21:52:39.193Z,44.40
2019-03-22T21:55:10.973Z,44.50
2019-03-22T21:57:39.815Z,45.10
2019-03-22T22:00:11.227Z,45.80
2019-03-22T22:02:40.059Z,45.90
2019-03-22T22:05:09.885Z,45.50
2019-03-22T22:07:38.790Z,44.90
2019-03-22T22:10:08.259Z,44.10
2019-03-22T22:12:37.119Z,44.20
2019-03-22T22:15:09.435Z,44.90
2019-03-22T22:17:39.446Z,45.10
2019-03-22T22:20:08.370Z,44.90
2019-03-22T22:22:37.216Z,45.10
2019-03-22T22:25:07.563Z,44.10
2019-03-22T22:27:36.425Z,43.40
2019-03-22T22:30:12.587Z,43.60
2019-03-22T22:32:41.451Z,43.40
2019-03-22T22:35:10.287Z,43.00
2019-03-22T22:37:39.127Z,43.20
2019-03-22T22:40:09.785Z,42.80
2019-03-22T22:42:38.656Z,42.70
2019-03-22T22:45:08.773Z,42.80
2019-03-22T22:47:37.597Z,43.00
2019-03-22T22:50:08.273Z,42.80
2019-03-22T22:52:37.103Z,43.20
2019-03-22T22:55:06.165Z,43.80
2019-03-22T22:57:34.980Z,43.50
2019-03-22T23:00:08.692Z,43.60
2019-03-22T23:02:37.527Z,43.40
2019-03-22T23:05:06.979Z,43.10
2019-03-22T23:07:35.852Z,43.40
2019-03-22T23:10:06.578Z,43.80
2019-03-22T23:12:35.940Z,44.20
2019-03-22T23:15:09.241Z,45.30
2019-03-22T23:17:38.140Z,44.40
2019-03-22T23:20:08.759Z,43.20
2019-03-22T23:22:37.626Z,43.60
2019-03-22T23:25:07.166Z,43.90
2019-03-22T23:27:36.945Z,43.00
2019-03-22T23:30:07.780Z,42.80
2019-03-22T23:32:36.637Z,43.10
2019-03-22T23:35:06.951Z,42.80
2019-03-22T23:37:35.809Z,42.40
2019-03-22T23:40:06.559Z,42.60
2019-03-22T23:42:35.415Z,43.40
2019-03-22T23:45:06.637Z,43.10
2019-03-22T23:47:35.502Z,43.40
2019-03-22T23:50:07.063Z,44.10
2019-03-22T23:52:35.991Z,44.40
2019-03-22T23:55:06.336Z,44.40
2019-03-22T23:57:35.154Z,45.00
